createdAt,value
2022-08-12T00:02:44.277Z,1.90
2022-08-12T00:05:32.174Z,2.10
2022-08-12T00:08:17.676Z,2.20
2022-08-12T00:11:17.143Z,2.10
2022-08-12T00:16:48.279Z,2.30
2022-08-12T00:19:39.554Z,2.10
2022-08-12T00:22:27.211Z,1.90
2022-08-12T00:25:16.419Z,2.05
2022-08-12T00:28:02.694Z,2.15
2022-08-12T00:30:48.791Z,2.20
2022-08-12T00:33:34.742Z,1.90
2022-08-12T00:36:35.027Z,2.13
2022-08-12T00:39:23.356Z,1.98
2022-08-12T00:42:10.205Z,2.13
2022-08-12T00:44:38.867Z,1.92
2022-08-12T00:47:09.467Z,2.50
2022-08-12T00:49:54.560Z,2.35
2022-08-12T00:52:23.772Z,2.30
2022-08-12T00:54:57.237Z,2.25
2022-08-12T00:57:27.297Z,2.22
2022-08-12T00:59:57.213Z,2.30
2022-08-12T01:02:33.698Z,2.20
2022-08-12T01:05:19.648Z,2.00
2022-08-12T01:08:05.778Z,2.13
2022-08-12T01:10:54.834Z,2.10
2022-08-12T01:13:23.337Z,2.38
2022-08-12T01:15:52.434Z,2.28
2022-08-12T01:18:21.694Z,2.35
2022-08-12T01:20:59.813Z,2.20
2022-08-12T01:23:43.581Z,2.35
2022-08-12T01:26:18.111Z,2.17
2022-08-12T01:28:48.523Z,2.40
2022-08-12T01:31:19.825Z,2.30
2022-08-12T01:33:54.082Z,2.63
2022-08-12T01:36:23.786Z,2.10
2022-08-12T01:38:53.575Z,2.40
2022-08-12T01:41:25.828Z,2.15
2022-08-12T01:43:54.599Z,2.22
2022-08-12T01:46:27.575Z,2.38
2022-08-12T01:49:03.023Z,2.50
2022-08-12T01:52:15.209Z,2.40
2022-08-12T01:54:30.137Z,2.45
2022-08-12T01:57:06.038Z,2.50
2022-08-12T01:59:50.882Z,2.58
2022-08-12T02:02:20.256Z,2.50
2022-08-12T02:05:16.208Z,2.50
2022-08-12T02:08:07.190Z,2.40
2022-08-12T02:10:56.484Z,2.20
2022-08-12T02:13:48.543Z,2.53
2022-08-12T02:16:24.376Z,2.63
2022-08-12T02:18:56.244Z,2.38
2022-08-12T02:21:29.107Z,2.42
2022-08-12T02:23:58.320Z,2.30
2022-08-12T02:26:28.134Z,1.98
2022-08-12T02:28:57.945Z,2.30
2022-08-12T02:31:28.405Z,2.60
2022-08-12T02:33:58.702Z,2.45
2022-08-12T02:36:27.941Z,2.40
2022-08-12T02:39:00.442Z,2.63
2022-08-12T02:41:31.793Z,2.20
2022-08-12T02:44:02.172Z,2.38
2022-08-12T02:46:32.497Z,2.30
2022-08-12T02:49:04.933Z,2.50
2022-08-12T02:51:34.775Z,2.60
2022-08-12T02:54:05.339Z,2.40
2022-08-12T02:56:36.462Z,2.28
2022-08-12T02:59:07.771Z,2.22
2022-08-12T03:01:36.345Z,2.55
2022-08-12T03:04:21.726Z,2.40
2022-08-12T03:06:53.238Z,2.50
2022-08-12T03:09:23.794Z,2.70
2022-08-12T03:11:59.545Z,2.70
2022-08-12T03:14:30.917Z,2.70
2022-08-12T03:17:08.430Z,2.75
2022-08-12T03:20:09.765Z,2.80
2022-08-12T03:22:28.242Z,2.50
2022-08-12T03:25:00.391Z,2.80
2022-08-12T03:27:29.971Z,2.55
2022-08-12T03:29:59.895Z,2.40
2022-08-12T03:32:35.272Z,2.72
2022-08-12T03:35:07.468Z,2.60
2022-08-12T03:37:36.956Z,2.70
2022-08-12T03:40:08.933Z,2.72
2022-08-12T03:42:38.862Z,2.80
2022-08-12T03:45:50.023Z,2.55
2022-08-12T03:48:40.134Z,2.58
2022-08-12T03:51:26.694Z,2.42
2022-08-12T03:54:12.531Z,2.40
2022-08-12T03:56:58.355Z,2.67
2022-08-12T04:00:08.555Z,2.53
2022-08-12T04:02:41.917Z,2.60
2022-08-12T04:05:21.600Z,2.70
2022-08-12T04:07:58.041Z,2.40
2022-08-12T04:10:49.154Z,3.08
2022-08-12T04:13:20.223Z,3.25
2022-08-12T04:15:49.774Z,3.35
2022-08-12T04:18:18.402Z,2.88
2022-08-12T04:20:50.103Z,2.72
2022-08-12T04:23:34.024Z,2.90
2022-08-12T04:26:02.160Z,2.90
2022-08-12T04:28:47.602Z,2.78
2022-08-12T04:31:16.303Z,2.77
2022-08-12T04:33:44.892Z,2.83
2022-08-12T04:36:15.267Z,2.90
2022-08-12T04:38:47.735Z,2.63
2022-08-12T04:41:16.101Z,2.63
2022-08-12T04:44:01.069Z,2.95
2022-08-12T04:46:34.432Z,2.80
2022-08-12T04:49:03.876Z,2.80
2022-08-12T04:51:34.450Z,2.67
2022-08-12T04:54:03.172Z,2.80
2022-08-12T04:56:35.507Z,2.45
2022-08-12T04:59:05.026Z,2.85
2022-08-12T05:01:33.650Z,2.70
2022-08-12T05:04:02.946Z,2.60
2022-08-12T05:06:31.907Z,2.65
2022-08-12T05:09:18.543Z,3.17
2022-08-12T05:15:29.221Z,2.78
2022-08-12T05:18:19.727Z,2.80
2022-08-12T05:20:56.453Z,2.78
2022-08-12T05:23:48.371Z,2.97
2022-08-12T05:26:19.374Z,2.85
2022-08-12T05:30:08.398Z,3.08
2022-08-12T05:32:27.268Z,2.83
2022-08-12T05:35:11.522Z,2.92
2022-08-12T05:37:41.299Z,2.92
2022-08-12T05:40:14.177Z,3.03
2022-08-12T05:42:43.496Z,2.95
2022-08-12T05:45:22.966Z,3.00
2022-08-12T05:47:59.638Z,2.70
2022-08-12T05:50:30.382Z,2.90
2022-08-12T05:53:01.995Z,2.80
2022-08-12T05:55:31.715Z,2.90
2022-08-12T05:58:03.250Z,2.80
2022-08-12T06:00:41.477Z,2.60
2022-08-12T06:03:12.614Z,2.80
2022-08-12T06:05:54.953Z,3.03
2022-08-12T06:08:55.400Z,3.10
2022-08-12T06:15:22.264Z,2.80
2022-08-12T06:17:59.705Z,2.50
2022-08-12T06:20:45.435Z,2.50
2022-08-12T06:23:16.994Z,2.65
2022-08-12T06:25:51.230Z,2.95
2022-08-12T06:28:22.897Z,2.65
2022-08-12T06:31:24.215Z,2.65
2022-08-12T06:35:24.190Z,2.80
2022-08-12T06:37:13.714Z,2.50
2022-08-12T06:40:27.232Z,2.78
2022-08-12T06:44:05.532Z,2.45
2022-08-12T06:46:49.076Z,2.70
2022-08-12T06:49:41.205Z,2.72
2022-08-12T06:52:46.434Z,2.45
2022-08-12T07:07:02.221Z,2.50
2022-08-12T07:14:02.459Z,2.42
2022-08-12T08:40:40.736Z,2.30
2022-08-12T08:43:24.498Z,2.10
2022-08-12T08:46:38.284Z,2.10
2022-08-12T08:49:09.866Z,2.20
2022-08-12T08:55:02.105Z,2.50
2022-08-12T09:22:20.571Z,2.20
2022-08-12T09:25:33.710Z,2.20
2022-08-12T09:38:38.892Z,2.08
2022-08-12T09:42:33.882Z,2.30
2022-08-12T09:45:18.758Z,2.30
2022-08-12T09:47:59.670Z,2.30
2022-08-12T09:50:43.602Z,2.20
2022-08-12T09:53:45.648Z,2.15
2022-08-12T09:56:59.208Z,2.22
2022-08-12T10:00:15.531Z,1.95
2022-08-12T10:02:45.195Z,2.22
2022-08-12T10:06:19.582Z,2.10
2022-08-12T10:12:10.490Z,2.10
2022-08-12T10:21:02.145Z,2.20
2022-08-12T10:24:08.176Z,2.00
2022-08-12T10:36:52.003Z,2.35
2022-08-12T10:40:06.858Z,2.22
2022-08-12T10:43:11.648Z,2.30
2022-08-12T10:45:52.085Z,2.13
2022-08-12T10:49:05.699Z,2.20
2022-08-12T10:52:03.876Z,2.00
2022-08-12T10:58:33.701Z,2.17
2022-08-12T11:01:49.458Z,1.95
2022-08-12T11:12:34.644Z,1.95
2022-08-12T11:14:49.616Z,2.00
2022-08-12T11:21:57.514Z,2.10
2022-08-12T11:25:20.782Z,2.10
2022-08-12T11:28:40.725Z,2.30
2022-08-12T11:32:01.899Z,2.20
2022-08-12T11:44:45.317Z,2.30
2022-08-12T11:47:40.215Z,1.90
2022-08-12T11:50:32.166Z,1.95
2022-08-12T12:04:52.997Z,1.80
2022-08-12T12:16:02.545Z,1.60
2022-08-12T12:42:42.497Z,1.95
2022-08-12T12:45:19.653Z,2.08
2022-08-12T12:54:36.330Z,1.85
2022-08-12T12:57:14.913Z,1.90
2022-08-12T13:00:15.362Z,2.00
2022-08-12T13:03:19.271Z,2.00
2022-08-12T13:05:54.135Z,1.85
2022-08-12T13:12:03.799Z,1.70
2022-08-12T13:14:35.334Z,1.80
2022-08-12T13:18:01.932Z,1.75
2022-08-12T13:26:51.430Z,1.80
2022-08-12T13:29:24.832Z,1.80
2022-08-12T13:32:19.449Z,1.80
2022-08-12T13:35:20.284Z,1.75
2022-08-12T13:41:02.622Z,1.52
2022-08-12T13:44:13.299Z,1.50
2022-08-12T13:47:00.424Z,2.00
2022-08-12T13:49:57.709Z,1.70
2022-08-12T13:52:39.728Z,1.80
2022-08-12T13:55:31.007Z,1.60
2022-08-12T13:58:28.560Z,1.83
2022-08-12T14:01:43.895Z,1.80
2022-08-12T14:07:55.743Z,1.55
2022-08-12T14:10:50.690Z,1.67
2022-08-12T14:14:05.860Z,1.80
2022-08-12T14:16:14.374Z,1.60
2022-08-12T14:18:59.329Z,1.58
2022-08-12T14:21:59.544Z,1.60
2022-08-12T14:24:41.109Z,1.60
2022-08-12T14:28:02.737Z,1.70
2022-08-12T14:31:00.414Z,1.73
2022-08-12T14:33:55.820Z,1.70
2022-08-12T14:36:25.749Z,1.65
2022-08-12T14:39:19.978Z,1.70
2022-08-12T14:42:26.050Z,1.90
2022-08-12T14:45:16.842Z,1.98
2022-08-12T14:48:01.626Z,1.70
2022-08-12T14:50:58.199Z,1.63
2022-08-12T14:59:23.704Z,1.70
2022-08-12T15:02:03.090Z,2.00
2022-08-12T15:06:05.127Z,1.80
2022-08-12T15:11:21.732Z,1.65
2022-08-12T15:13:59.381Z,1.60
2022-08-12T15:20:28.028Z,1.73
2022-08-12T15:22:39.161Z,1.58
2022-08-12T15:25:40.269Z,2.10
2022-08-12T15:28:21.493Z,1.60
2022-08-12T15:30:54.834Z,1.60
2022-08-12T15:33:45.017Z,1.67
2022-08-12T15:39:37.969Z,1.80
2022-08-12T16:33:04.900Z,1.80
2022-08-12T16:35:36.747Z,1.90
2022-08-12T16:38:28.677Z,1.90
2022-08-12T16:44:13.870Z,1.88
2022-08-12T16:47:14.553Z,2.00
2022-08-12T16:49:53.330Z,1.95
2022-08-12T16:59:54.649Z,2.00
2022-08-12T17:02:44.657Z,1.90
2022-08-12T17:05:49.919Z,1.98
2022-08-12T17:08:31.336Z,2.10
2022-08-12T17:11:18.115Z,2.03
2022-08-12T17:13:58.686Z,1.80
2022-08-12T17:16:42.830Z,1.80
2022-08-12T17:20:29.895Z,2.17
2022-08-12T17:22:50.948Z,1.98
2022-08-12T17:25:58.763Z,2.10
2022-08-12T17:28:44.932Z,1.98
2022-08-12T17:35:51.853Z,2.00
2022-08-12T18:09:32.226Z,2.10
2022-08-12T18:23:24.184Z,2.10
2022-08-12T18:26:17.903Z,1.90
2022-08-12T18:28:59.840Z,2.10
2022-08-12T18:32:00.046Z,2.45
2022-08-12T18:34:35.730Z,2.50
2022-08-12T18:37:41.271Z,2.63
2022-08-12T18:40:24.618Z,3.03
2022-08-12T18:43:58.418Z,3.30
2022-08-12T18:46:32.139Z,3.30
2022-08-12T18:49:19.050Z,3.08
2022-08-12T18:52:02.402Z,3.08
2022-08-12T18:54:59.357Z,3.10
2022-08-12T18:58:08.061Z,3.28
2022-08-12T19:04:07.747Z,3.90
2022-08-12T19:06:47.447Z,4.50
2022-08-12T19:09:58.284Z,4.47
2022-08-12T20:15:49.787Z,4.32
2022-08-12T20:31:03.974Z,3.75
2022-08-12T20:44:58.726Z,5.20
2022-08-12T20:48:57.776Z,5.32
2022-08-12T20:53:00.881Z,5.43
2022-08-12T20:56:30.258Z,6.07
2022-08-12T20:59:20.225Z,5.65
2022-08-12T21:02:08.195Z,5.72
2022-08-12T21:05:02.083Z,5.60
2022-08-12T21:07:47.701Z,5.55
2022-08-12T21:10:32.144Z,5.63
2022-08-12T21:13:20.016Z,5.85
2022-08-12T21:15:54.789Z,5.75
2022-08-12T21:18:31.673Z,5.65
2022-08-12T21:21:00.684Z,6.05
2022-08-12T21:23:31.035Z,6.15
2022-08-12T21:28:39.908Z,5.88
2022-08-12T21:32:39.929Z,5.35
2022-08-12T21:34:08.761Z,5.90
2022-08-12T21:36:39.965Z,6.03
2022-08-12T21:39:19.341Z,5.75
2022-08-12T21:42:45.022Z,6.40
2022-08-12T21:45:47.484Z,6.00
2022-08-12T21:48:08.872Z,6.10
2022-08-12T21:50:42.144Z,6.00
2022-08-12T21:53:12.731Z,5.88
2022-08-12T21:55:45.906Z,6.35
2022-08-12T21:58:21.232Z,5.57
2022-08-12T22:00:52.873Z,5.68
2022-08-12T22:04:12.679Z,5.70
2022-08-12T22:07:01.834Z,5.35
2022-08-12T22:09:42.585Z,5.65
2022-08-12T22:12:37.753Z,5.60
2022-08-12T22:15:07.644Z,6.20
2022-08-12T22:17:49.859Z,6.10
2022-08-12T22:20:29.678Z,6.10
2022-08-12T22:23:21.859Z,6.38
2022-08-12T22:26:06.946Z,6.10
2022-08-12T22:28:57.332Z,6.00
2022-08-12T22:31:27.513Z,6.38
2022-08-12T22:33:59.885Z,5.60
2022-08-12T22:36:30.928Z,6.20
2022-08-12T22:39:10.208Z,6.50
2022-08-12T22:41:57.959Z,6.07
2022-08-12T22:44:54.069Z,6.13
2022-08-12T22:47:55.023Z,5.82
2022-08-12T22:50:28.313Z,6.15
2022-08-12T22:53:15.515Z,5.97
2022-08-12T22:56:05.831Z,6.15
2022-08-12T22:58:40.682Z,6.28
2022-08-12T23:01:11.356Z,5.95
2022-08-12T23:03:51.089Z,5.80
2022-08-12T23:06:24.000Z,6.07
2022-08-12T23:08:53.004Z,6.22
2022-08-12T23:11:23.161Z,5.63
2022-08-12T23:13:57.132Z,6.28
2022-08-12T23:16:31.255Z,6.00
2022-08-12T23:19:10.520Z,6.13
2022-08-12T23:22:04.224Z,6.03
2022-08-12T23:24:56.281Z,6.25
2022-08-12T23:27:51.159Z,5.75
2022-08-12T23:30:31.262Z,6.35
2022-08-12T23:33:01.652Z,5.97
2022-08-12T23:35:46.049Z,6.20
2022-08-12T23:38:31.754Z,5.97
2022-08-12T23:41:01.603Z,5.88
2022-08-12T23:43:38.949Z,6.10
2022-08-12T23:46:11.523Z,6.07
2022-08-12T23:48:40.769Z,6.40
2022-08-12T23:51:23.708Z,6.28
2022-08-12T23:53:59.647Z,5.97
2022-08-12T23:56:29.377Z,6.00
2022-08-12T23:59:00.131Z,6.60
